Bolinder Field-Tooele Valley Information

FAA: TVY - ICAO: KTVY

Bolinder Field-Tooele Valley (Airport) Location

State Utah
County Tooele
City Tooele
Bolinder Field-Tooele Valley (Airport) is 5 miles northwest of Tooele, UT.
Latitude 40-36-45.2000N
Longitude 112-21-02.8000W
Elevation 4,321ft

Bolinder Field-Tooele Valley METARs

METAR KTVY 251735Z AUTO 28009KT 10SM OVC022 M01/M03 A3023 RMK AO2
Altimeter 30.23"
Temperature -1.0°C (30.2°F)
Wind 280° at 9KT
Clouds overcast at 2,200ft
Visibility 10.0mi
Time observed: 2022-01-25T17:35:00Z

Bolinder Field-Tooele Valley (Airport) Details

Status Operational
Activation July 1977
Ownership Public
Usage Public
Chart SALT LAKE CITY
ATC on-site No
Beacon schedule sunset-sunrise
Beacon color clear green

Bolinder Field-Tooele Valley (Airport) Contacts

Owner SALT LAKE CITY DEPT OF AIRPORTS
Owner address PO BOX 145550, SALT LAKE CITY, UT 84114-5550
Owner phone 801-575-2401
Manager KENT JOHNSON
Manager address 250 NORTH 2370 WEST, SALT LAKE CITY, UT 84116
Manager phone (801) 321-3362

Bolinder Field-Tooele Valley Radio Frequencies

Bolinder Field-Tooele Valley (Airport) Radio Frequencies

UNICOM 123
Common traffic advisory frequency (CTAF) 123